»·PEaware :: N32314 KSBA-KONT

N32314 :: KSBA-KONT

FLIGHT INFORMATION

Flight Status: Arrived
Operator: Privately registered:
United States
More flights under this callsign
Pilot: John O. (31453)
Aircraft: CESSNA 172 SKYHAWK
(C172)
More flights by this aircraft type
Origin: KSBA Santa Barbara Mun
United States
Destination: KONT Ontario Intl
United States
More flights between these airports :: More routes between these airports
Route: +
File this flight plan on PilotEdge
Remarks:
Altitude:
(Current/Filed)
5,500ft
Speed:
(Current/Filed)
0kts
Departed: 07-Nov-20 03:15 PM
Arrived: 07-Nov-20 04:40 PM
Distance/Time
Traveled:
113nm/1:24
Distance/Time
To Go:
Arrived

Flight Plot

Page will automatically refresh every two minutes.


Map Options




Map Legend


Flown Route
Filed Route
Departure Airport
Arrival Airport
Navaid (VOR, NDB)
Fix

Horizontal Profiles

Position Reports

Time Latitude Longitude Heading Altitude Ground
Speed
07-Nov-20 14:49 34.422635 -119.836366 254 16ft 0kts
07-Nov-20 14:50 34.422635 -119.836366 254 16ft 0kts
07-Nov-20 14:51 34.422612 -119.836562 267 16ft 8kts
07-Nov-20 14:52 34.425143 -119.837877 347 18ft 15kts
07-Nov-20 14:53 34.426775 -119.835109 88 16ft 11kts
07-Nov-20 14:54 34.427078 -119.834607 0 16ft 0kts
07-Nov-20 14:55 34.427078 -119.834607 0 16ft 0kts
07-Nov-20 14:56 34.427078 -119.834607 0 16ft 0kts
07-Nov-20 14:57 34.427078 -119.834607 0 16ft 0kts
07-Nov-20 14:59 34.427096 -119.834607 0 16ft 0kts
07-Nov-20 15:00 34.427096 -119.834607 0 16ft 0kts
07-Nov-20 15:01 34.427096 -119.834607 0 16ft 0kts
07-Nov-20 15:02 34.427096 -119.834607 0 16ft 0kts
07-Nov-20 15:03 34.427096 -119.834607 0 16ft 0kts
07-Nov-20 15:04 34.427096 -119.834607 0 16ft 0kts
07-Nov-20 15:05 34.427096 -119.834607 0 16ft 0kts
07-Nov-20 15:06 34.427096 -119.834607 0 16ft 0kts
07-Nov-20 15:07 34.427096 -119.834607 0 16ft 0kts
07-Nov-20 15:08 34.427096 -119.834607 0 16ft 0kts
07-Nov-20 15:09 34.427096 -119.834607 0 16ft 0kts
07-Nov-20 15:10 34.427096 -119.834607 0 16ft 0kts
07-Nov-20 15:11 34.427096 -119.834607 0 16ft 0kts
07-Nov-20 15:12 34.427096 -119.834607 0 16ft 0kts
07-Nov-20 15:13 34.427096 -119.834607 0 16ft 0kts
07-Nov-20 15:14 34.427096 -119.834607 0 16ft 0kts
07-Nov-20 15:15 34.427888 -119.837270 272 16ft 51kts
07-Nov-20 15:16 34.425873 -119.865414 262 475ft 95kts
07-Nov-20 15:16 34.422339 -119.891451 262 1101ft 90kts
07-Nov-20 15:17 34.418044 -119.922944 262 1589ft 108kts
07-Nov-20 15:18 34.413014 -119.961374 262 1610ft 119kts
07-Nov-20 15:19 34.389186 -119.968707 121 1741ft 124kts
07-Nov-20 15:20 34.378222 -119.930665 100 2242ft 118kts
07-Nov-20 15:21 34.373268 -119.891728 96 2797ft 114kts
07-Nov-20 15:22 34.368895 -119.854246 96 3396ft 111kts
07-Nov-20 15:23 34.364192 -119.814125 96 3694ft 122kts
07-Nov-20 15:24 34.359534 -119.774613 96 4189ft 116kts
07-Nov-20 15:25 34.354843 -119.735952 97 4690ft 115kts
07-Nov-20 15:26 34.350064 -119.697799 97 5190ft 114kts
07-Nov-20 15:27 34.345098 -119.658812 97 5557ft 125kts
07-Nov-20 15:28 34.339689 -119.614840 97 5580ft 136kts
07-Nov-20 15:29 34.332933 -119.569562 99 5606ft 135kts
07-Nov-20 15:30 34.325790 -119.523370 99 5332ft 145kts
07-Nov-20 15:31 34.318810 -119.475168 99 4828ft 145kts
07-Nov-20 15:32 34.312458 -119.429521 96 4315ft 131kts
07-Nov-20 15:33 34.308830 -119.386063 96 3821ft 129kts
07-Nov-20 15:34 34.305567 -119.344342 96 3627ft 119kts
07-Nov-20 15:35 34.302622 -119.304989 96 3595ft 114kts
07-Nov-20 15:36 34.299899 -119.266599 95 3603ft 116kts
07-Nov-20 15:37 34.297227 -119.228085 95 3597ft 115kts
07-Nov-20 15:38 34.294634 -119.189550 96 3590ft 114kts
07-Nov-20 15:39 34.292274 -119.151705 96 3586ft 112kts
07-Nov-20 15:40 34.290099 -119.113996 96 3586ft 112kts
07-Nov-20 15:41 34.288086 -119.076569 96 3588ft 112kts
07-Nov-20 15:42 34.281601 -119.040015 108 3579ft 111kts
07-Nov-20 15:43 34.273414 -119.004017 108 3579ft 111kts
07-Nov-20 15:44 34.265286 -118.967958 109 3577ft 110kts
07-Nov-20 15:45 34.254071 -118.934041 115 3579ft 107kts
07-Nov-20 15:46 34.241852 -118.897719 115 3255ft 121kts
07-Nov-20 15:47 34.229506 -118.861235 115 3083ft 112kts
07-Nov-20 15:48 34.217245 -118.825237 115 2896ft 115kts
07-Nov-20 15:49 34.205461 -118.790430 114 2858ft 108kts
07-Nov-20 15:50 34.194796 -118.756223 112 3161ft 115kts
07-Nov-20 15:51 34.185219 -118.717037 104 3253ft 125kts
07-Nov-20 15:52 34.178204 -118.674224 100 2920ft 132kts
07-Nov-20 15:53 34.173088 -118.632713 100 2768ft 119kts
07-Nov-20 15:54 34.168301 -118.593642 100 2762ft 117kts
07-Nov-20 15:55 34.163550 -118.554944 100 2759ft 116kts
07-Nov-20 15:56 34.158666 -118.515417 100 2614ft 121kts
07-Nov-20 15:57 34.153728 -118.475833 100 2557ft 117kts
07-Nov-20 15:58 34.148909 -118.437206 100 2553ft 116kts
07-Nov-20 15:59 34.144150 -118.398541 100 2550ft 116kts
07-Nov-20 16:00 34.139446 -118.360251 100 2548ft 115kts
07-Nov-20 16:01 34.134734 -118.321836 100 2562ft 117kts
07-Nov-20 16:02 34.129876 -118.282732 100 2537ft 116kts
07-Nov-20 16:03 34.125152 -118.244610 101 2549ft 116kts
07-Nov-20 16:04 34.120345 -118.205600 100 2488ft 116kts
07-Nov-20 16:05 34.115614 -118.166885 100 2490ft 116kts
07-Nov-20 16:06 34.109777 -118.128500 106 2490ft 116kts
07-Nov-20 16:07 34.098089 -118.092632 119 2489ft 114kts
07-Nov-20 16:08 34.084813 -118.060249 119 2492ft 115kts
07-Nov-20 16:09 34.071130 -118.025890 113 2495ft 115kts
07-Nov-20 16:10 34.062422 -117.990770 101 2852ft 99kts
07-Nov-20 16:11 34.059573 -117.959064 98 3454ft 96kts
07-Nov-20 16:12 34.058902 -117.925440 93 4073ft 101kts
07-Nov-20 16:13 34.059525 -117.891871 93 4662ft 99kts
07-Nov-20 16:14 34.060575 -117.859532 93 5249ft 93kts
07-Nov-20 16:15 34.062320 -117.829962 98 5820ft 81kts
07-Nov-20 16:16 34.047518 -117.818103 162 6365ft 71kts
07-Nov-20 16:17 34.027928 -117.804900 142 6813ft 98kts
07-Nov-20 16:18 34.015005 -117.773066 127 7183ft 106kts
07-Nov-20 16:19 34.000691 -117.736984 124 7081ft 133kts
07-Nov-20 16:20 33.985162 -117.697918 124 7006ft 130kts
07-Nov-20 16:21 33.969607 -117.658882 124 7004ft 129kts
07-Nov-20 16:22 33.953720 -117.620027 124 7006ft 129kts
07-Nov-20 16:23 33.937670 -117.581136 124 7006ft 129kts
07-Nov-20 16:24 33.921461 -117.542338 124 7010ft 130kts
07-Nov-20 16:25 33.922049 -117.504827 11 6988ft 138kts
07-Nov-20 16:26 33.947568 -117.474520 59 7010ft 139kts
07-Nov-20 16:27 33.968125 -117.435415 59 7004ft 135kts
07-Nov-20 16:28 33.988569 -117.396390 62 7007ft 138kts
07-Nov-20 16:29 34.007108 -117.355736 63 6509ft 132kts
07-Nov-20 16:30 34.037252 -117.352685 328 5709ft 118kts
07-Nov-20 16:31 34.055108 -117.379333 265 4824ft 113kts
07-Nov-20 16:32 34.055032 -117.415173 265 3741ft 91kts
07-Nov-20 16:33 34.055006 -117.447349 265 3118ft 98kts
07-Nov-20 16:34 34.054999 -117.479678 265 2586ft 91kts
07-Nov-20 16:35 34.054987 -117.508094 264 2155ft 78kts
07-Nov-20 16:36 34.054978 -117.533115 264 1755ft 74kts
07-Nov-20 16:37 34.054977 -117.558020 264 1359ft 74kts
07-Nov-20 16:38 34.055005 -117.581174 262 986ft 62kts
07-Nov-20 16:39 34.054618 -117.593655 235 932ft 21kts
07-Nov-20 16:40 34.054092 -117.594547 241 934ft 8kts
07-Nov-20 16:41 34.053858 -117.603389 268 934ft 37kts
07-Nov-20 16:42 34.053184 -117.605270 11 933ft 0kts
07-Nov-20 16:43 34.053184 -117.605270 11 933ft 0kts
07-Nov-20 16:44 34.053184 -117.605270 11 933ft 0kts
07-Nov-20 16:45 34.053184 -117.605270 11 933ft 0kts
07-Nov-20 16:46 34.053184 -117.605270 11 933ft 0kts
07-Nov-20 16:47 34.053184 -117.605270 11 933ft 0kts
07-Nov-20 16:48 34.053184 -117.605270 11 933ft 0kts
07-Nov-20 16:49 34.053184 -117.605270 11 933ft 0kts
07-Nov-20 16:50 34.053184 -117.605270 11 933ft 0kts
07-Nov-20 16:52 34.053184 -117.605270 11 933ft 0kts
07-Nov-20 16:53 34.053184 -117.605270 11 933ft 0kts
07-Nov-20 16:54 34.053184 -117.605270 11 933ft 0kts

Navigation Log

Ident Type
Flight plan parsing failed, navigation log unavailable